Time,TemperatureF,DewpointF,PressureIn,WindDirection,WindDirectionDegrees,WindSpeedMPH,WindSpeedGustMPH,Humidity,HourlyPrecipIn,Conditions,Clouds,dailyrainin,SoftwareType,DateUTC
2013-02-26 00:06:00,56.7,32.0,29.87,NNW,343,13.0,19.0,40,0.00,,,0.01,weatherlink.com 1.10,2013-02-26 06:06:00,
2013-02-26 00:21:00,56.5,32.0,29.88,NNW,338,8.0,19.0,39,0.00,,,0.01,weatherlink.com 1.10,2013-02-26 06:21:00,
2013-02-26 00:36:00,56.2,33.0,29.88,WNW,301,7.0,20.0,41,0.00,,,0.01,weatherlink.com 1.10,2013-02-26 06:36:00,
2013-02-26 00:51:00,55.7,33.0,29.88,NW,319,10.0,16.0,43,0.00,,,0.01,weatherlink.com 1.10,2013-02-26 06:51:00,
2013-02-26 01:06:00,55.4,32.0,29.88,NNW,331,12.0,20.0,42,0.00,,,0.00,weatherlink.com 1.10,2013-02-26 07:06:00,
2013-02-26 01:21:00,55.3,32.0,29.89,NW,314,8.0,24.0,41,0.00,,,0.00,weatherlink.com 1.10,2013-02-26 07:21:00,
2013-02-26 01:36:00,55.3,30.0,29.89,WNW,301,10.0,29.0,38,0.00,,,0.00,weatherlink.com 1.10,2013-02-26 07:36:00,
2013-02-26 01:51:00,55.2,30.0,29.88,NW,312,20.0,27.0,39,0.00,,,0.00,weatherlink.com 1.10,2013-02-26 07:51:00,
2013-02-26 02:07:00,54.9,30.0,29.88,NNW,338,19.0,26.0,39,0.00,,,0.00,weatherlink.com 1.10,2013-02-26 08:07:00,
2013-02-26 02:22:00,54.5,30.0,29.89,NW,316,11.0,23.0,40,0.00,,,0.00,weatherlink.com 1.10,2013-02-26 08:22:00,
2013-02-26 02:37:00,54.3,30.0,29.88,NW,320,15.0,22.0,40,0.00,,,0.00,weatherlink.com 1.10,2013-02-26 08:37:00,
2013-02-26 02:52:00,54.1,31.0,29.90,WNW,287,11.0,23.0,41,0.00,,,0.00,weatherlink.com 1.10,2013-02-26 08:52:00,
2013-02-26 03:07:00,53.8,32.0,29.89,WNW,294,8.0,19.0,43,0.00,,,0.00,weatherlink.com 1.10,2013-02-26 09:07:00,
2013-02-26 03:22:00,52.7,31.0,29.89,West,277,9.0,15.0,44,0.00,,,0.00,weatherlink.com 1.10,2013-02-26 09:22:00,
2013-02-26 03:37:00,51.8,31.0,29.90,West,275,10.0,15.0,46,0.00,,,0.00,weatherlink.com 1.10,2013-02-26 09:37:00,
2013-02-26 03:52:00,51.5,32.0,29.90,WNW,291,6.0,12.0,47,0.00,,,0.00,weatherlink.com 1.10,2013-02-26 09:52:00,
2013-02-26 04:07:00,51.8,31.0,29.89,WNW,296,8.0,13.0,46,0.00,,,0.00,weatherlink.com 1.10,2013-02-26 10:07:00,
2013-02-26 04:22:00,52.6,31.0,29.88,NW,324,8.0,19.0,44,0.00,,,0.00,weatherlink.com 1.10,2013-02-26 10:22:00,
2013-02-26 04:37:00,52.3,31.0,29.88,NW,323,8.0,21.0,44,0.00,,,0.00,weatherlink.com 1.10,2013-02-26 10:37:00,
2013-02-26 04:52:00,52.1,31.0,29.88,NNW,338,8.0,19.0,45,0.00,,,0.00,weatherlink.com 1.10,2013-02-26 10:52:00,
2013-02-26 05:08:00,51.9,32.0,29.88,NW,306,14.0,19.0,46,0.00,,,0.00,weatherlink.com 1.10,2013-02-26 11:08:00,
2013-02-26 05:22:00,51.6,32.0,29.90,NNW,328,7.0,15.0,48,0.00,,,0.00,weatherlink.com 1.10,2013-02-26 11:22:00,
2013-02-26 05:37:00,51.3,31.0,29.91,NW,312,10.0,14.0,47,0.00,,,0.00,weatherlink.com 1.10,2013-02-26 11:37:00,
2013-02-26 05:52:00,50.1,34.0,29.92,West,260,2.0,9.0,54,0.00,,,0.00,weatherlink.com 1.10,2013-02-26 11:52:00,
2013-02-26 06:07:00,47.3,33.0,29.93,WSW,243,6.0,9.0,58,0.00,,,0.00,weatherlink.com 1.10,2013-02-26 12:07:00,
2013-02-26 06:22:00,47.3,33.0,29.95,SW,218,2.0,9.0,59,0.00,,,0.00,weatherlink.com 1.10,2013-02-26 12:22:00,
2013-02-26 06:37:00,47.6,34.0,29.95,SW,231,5.0,8.0,59,0.00,,,0.00,weatherlink.com 1.10,2013-02-26 12:37:00,
2013-02-26 06:52:00,47.6,34.0,29.96,WSW,244,5.0,8.0,59,0.00,,,0.00,weatherlink.com 1.10,2013-02-26 12:52:00,
2013-02-26 07:07:00,47.4,34.0,29.97,WSW,256,6.0,8.0,60,0.00,,,0.00,weatherlink.com 1.10,2013-02-26 13:07:00,
2013-02-26 07:22:00,47.7,34.0,29.97,West,261,7.0,12.0,59,0.00,,,0.00,weatherlink.com 1.10,2013-02-26 13:22:00,
2013-02-26 07:37:00,47.9,33.0,29.98,West,269,2.0,8.0,57,0.00,,,0.00,weatherlink.com 1.10,2013-02-26 13:37:00,
2013-02-26 07:52:00,48.4,33.0,29.98,SW,229,4.0,11.0,56,0.00,,,0.00,weatherlink.com 1.10,2013-02-26 13:52:00,
2013-02-26 08:07:00,49.0,33.0,29.98,SW,233,5.0,11.0,54,0.00,,,0.00,weatherlink.com 1.10,2013-02-26 14:07:00,
2013-02-26 08:22:00,49.9,32.0,29.99,SW,224,8.0,12.0,51,0.00,,,0.00,weatherlink.com 1.10,2013-02-26 14:22:00,
2013-02-26 08:37:00,49.3,32.0,30.00,SW,231,6.0,12.0,51,0.00,,,0.00,weatherlink.com 1.10,2013-02-26 14:37:00,
2013-02-26 08:52:00,50.0,31.0,30.00,West,265,5.0,12.0,48,0.00,,,0.00,weatherlink.com 1.10,2013-02-26 14:52:00,
2013-02-26 09:07:00,50.6,30.0,30.00,West,277,8.0,11.0,45,0.00,,,0.00,weatherlink.com 1.10,2013-02-26 15:07:00,
2013-02-26 09:22:00,51.6,31.0,30.00,WNW,283,6.0,12.0,45,0.00,,,0.00,weatherlink.com 1.10,2013-02-26 15:22:00,
2013-02-26 09:37:00,52.7,31.0,30.00,WNW,295,5.0,12.0,43,0.00,,,0.00,weatherlink.com 1.10,2013-02-26 15:37:00,
2013-02-26 09:52:00,53.0,30.0,30.00,NW,314,5.0,12.0,42,0.00,,,0.00,weatherlink.com 1.10,2013-02-26 15:52:00,
2013-02-26 10:08:00,53.8,30.0,30.00,West,268,7.0,10.0,40,0.00,,,0.00,weatherlink.com 1.10,2013-02-26 16:08:00,
2013-02-26 10:22:00,54.2,30.0,30.00,WNW,285,9.0,11.0,39,0.00,,,0.00,weatherlink.com 1.10,2013-02-26 16:22:00,
2013-02-26 10:38:00,54.8,29.0,30.00,NW,320,8.0,10.0,37,0.00,,,0.00,weatherlink.com 1.10,2013-02-26 16:38:00,
2013-02-26 10:53:00,56.4,30.0,30.00,NNW,343,1.0,7.0,37,0.00,,,0.00,weatherlink.com 1.10,2013-02-26 16:53:00,
2013-02-26 11:08:00,57.1,29.0,30.00,West,270,0.0,8.0,34,0.00,,,0.00,weatherlink.com 1.10,2013-02-26 17:08:00,
2013-02-26 11:23:00,57.4,30.0,30.00,NW,312,2.0,8.0,35,0.00,,,0.00,weatherlink.com 1.10,2013-02-26 17:23:00,
2013-02-26 11:38:00,59.1,29.0,29.99,NW,314,6.0,8.0,32,0.00,,,0.00,weatherlink.com 1.10,2013-02-26 17:38:00,
2013-02-26 11:53:00,59.9,28.0,29.98,WNW,294,7.0,10.0,30,0.00,,,0.00,weatherlink.com 1.10,2013-02-26 17:53:00,
2013-02-26 12:08:00,61.0,28.0,29.97,NNW,333,5.0,11.0,29,0.00,,,0.00,weatherlink.com 1.10,2013-02-26 18:08:00,
2013-02-26 12:23:00,61.7,29.0,29.96,NW,305,8.0,9.0,29,0.00,,,0.00,weatherlink.com 1.10,2013-02-26 18:23:00,
2013-02-26 12:53:00,63.0,28.0,29.93,WSW,240,0.0,8.0,27,0.00,,,0.00,weatherlink.com 1.10,2013-02-26 18:53:00,
2013-02-26 13:08:00,64.7,30.0,29.93,WSW,240,0.0,6.0,27,0.00,,,0.00,weatherlink.com 1.10,2013-02-26 19:08:00,
2013-02-26 13:23:00,63.1,35.0,29.91,ESE,119,6.0,11.0,35,0.00,,,0.00,weatherlink.com 1.10,2013-02-26 19:23:00,
2013-02-26 13:38:00,63.2,36.0,29.91,SSE,148,5.0,13.0,37,0.00,,,0.00,weatherlink.com 1.10,2013-02-26 19:38:00,
2013-02-26 13:53:00,62.2,37.0,29.90,SE,145,6.0,13.0,39,0.00,,,0.00,weatherlink.com 1.10,2013-02-26 19:53:00,
2013-02-26 14:08:00,62.1,39.0,29.89,ESE,112,7.0,11.0,42,0.00,,,0.00,weatherlink.com 1.10,2013-02-26 20:08:00,
2013-02-26 14:23:00,61.7,38.0,29.89,ESE,115,7.0,10.0,42,0.00,,,0.00,weatherlink.com 1.10,2013-02-26 20:23:00,
2013-02-26 14:38:00,61.9,38.0,29.88,ESE,119,8.0,10.0,42,0.00,,,0.00,weatherlink.com 1.10,2013-02-26 20:38:00,
2013-02-26 14:53:00,61.5,38.0,29.87,ESE,105,5.0,11.0,42,0.00,,,0.00,weatherlink.com 1.10,2013-02-26 20:53:00,
2013-02-26 15:08:00,62.3,40.0,29.86,ESE,121,12.0,12.0,44,0.00,,,0.00,weatherlink.com 1.10,2013-02-26 21:08:00,
2013-02-26 15:23:00,62.0,40.0,29.87,ESE,110,5.0,12.0,44,0.00,,,0.00,weatherlink.com 1.10,2013-02-26 21:23:00,
2013-02-26 15:38:00,61.5,39.0,29.87,ESE,105,9.0,11.0,44,0.00,,,0.00,weatherlink.com 1.10,2013-02-26 21:38:00,
2013-02-26 15:53:00,63.0,36.0,29.86,ESE,114,6.0,11.0,37,0.00,,,0.00,weatherlink.com 1.10,2013-02-26 21:53:00,
2013-02-26 16:08:00,64.6,38.0,29.86,SE,129,9.0,13.0,37,0.00,,,0.00,weatherlink.com 1.10,2013-02-26 22:08:00,
2013-02-26 16:23:00,64.1,40.0,29.86,SSE,150,9.0,15.0,42,0.00,,,0.00,weatherlink.com 1.10,2013-02-26 22:23:00,
2013-02-26 16:38:00,62.1,43.0,29.85,SE,135,12.0,15.0,50,0.00,,,0.00,weatherlink.com 1.10,2013-02-26 22:38:00,
2013-02-26 16:53:00,61.2,42.0,29.85,SE,127,10.0,16.0,49,0.00,,,0.00,weatherlink.com 1.10,2013-02-26 22:53:00,
2013-02-26 17:08:00,61.8,43.0,29.86,SE,133,11.0,14.0,51,0.00,,,0.00,weatherlink.com 1.10,2013-02-26 23:08:00,
2013-02-26 17:23:00,61.6,43.0,29.86,SE,138,11.0,14.0,51,0.00,,,0.00,weatherlink.com 1.10,2013-02-26 23:23:00,
2013-02-26 17:38:00,61.6,44.0,29.86,SSE,158,6.0,13.0,53,0.00,,,0.00,weatherlink.com 1.10,2013-02-26 23:38:00,
2013-02-26 17:53:00,61.8,45.0,29.85,ESE,122,11.0,14.0,55,0.00,,,0.00,weatherlink.com 1.10,2013-02-26 23:53:00,
2013-02-26 18:08:00,61.2,45.0,29.86,SE,137,7.0,11.0,55,0.00,,,0.00,weatherlink.com 1.10,2013-02-27 00:08:00,
2013-02-26 18:23:00,61.3,45.0,29.86,SE,142,8.0,14.0,56,0.00,,,0.00,weatherlink.com 1.10,2013-02-27 00:23:00,
2013-02-26 18:38:00,61.0,46.0,29.87,SSE,158,10.0,13.0,58,0.00,,,0.00,weatherlink.com 1.10,2013-02-27 00:38:00,
2013-02-26 18:53:00,60.5,47.0,29.87,SSE,161,10.0,18.0,61,0.00,,,0.00,weatherlink.com 1.10,2013-02-27 00:53:00,
2013-02-26 19:08:00,60.4,46.0,29.88,SE,146,12.0,16.0,59,0.00,,,0.00,weatherlink.com 1.10,2013-02-27 01:08:00,
2013-02-26 19:23:00,60.4,47.0,29.88,SE,129,9.0,16.0,62,0.00,,,0.00,weatherlink.com 1.10,2013-02-27 01:23:00,
2013-02-26 19:38:00,60.5,47.0,29.89,South,171,9.0,15.0,62,0.00,,,0.00,weatherlink.com 1.10,2013-02-27 01:38:00,
2013-02-26 19:53:00,60.6,47.0,29.89,South,171,8.0,18.0,61,0.00,,,0.00,weatherlink.com 1.10,2013-02-27 01:53:00,
2013-02-26 20:08:00,60.8,48.0,29.90,South,170,8.0,14.0,64,0.00,,,0.00,weatherlink.com 1.10,2013-02-27 02:08:00,
2013-02-26 20:23:00,60.9,48.0,29.90,South,170,13.0,16.0,62,0.00,,,0.00,weatherlink.com 1.10,2013-02-27 02:23:00,
2013-02-26 20:38:00,60.9,49.0,29.89,South,170,9.0,21.0,64,0.00,,,0.00,weatherlink.com 1.10,2013-02-27 02:38:00,
2013-02-26 20:53:00,61.0,49.0,29.91,SSE,163,9.0,16.0,65,0.00,,,0.00,weatherlink.com 1.10,2013-02-27 02:53:00,
2013-02-26 21:08:00,61.1,49.0,29.91,South,175,14.0,19.0,65,0.00,,,0.00,weatherlink.com 1.10,2013-02-27 03:08:00,
2013-02-26 21:23:00,61.1,50.0,29.91,SSE,152,7.0,18.0,66,0.00,,,0.00,weatherlink.com 1.10,2013-02-27 03:23:00,
2013-02-26 21:38:00,60.7,50.0,29.91,SE,144,9.0,14.0,67,0.00,,,0.00,weatherlink.com 1.10,2013-02-27 03:38:00,
2013-02-26 21:53:00,60.6,51.0,29.91,South,189,11.0,20.0,70,0.00,,,0.00,weatherlink.com 1.10,2013-02-27 03:53:00,
2013-02-26 22:08:00,60.6,50.0,29.91,South,174,13.0,18.0,69,0.00,,,0.00,weatherlink.com 1.10,2013-02-27 04:08:00,
2013-02-26 22:23:00,60.7,51.0,29.91,South,188,9.0,18.0,70,0.00,,,0.00,weatherlink.com 1.10,2013-02-27 04:23:00,
2013-02-26 22:38:00,60.5,51.0,29.91,South,181,11.0,20.0,71,0.00,,,0.00,weatherlink.com 1.10,2013-02-27 04:38:00,
2013-02-26 22:53:00,60.5,52.0,29.91,South,173,10.0,18.0,73,0.00,,,0.00,weatherlink.com 1.10,2013-02-27 04:53:00,
2013-02-26 23:08:00,60.5,52.0,29.91,South,184,8.0,15.0,74,0.00,,,0.00,weatherlink.com 1.10,2013-02-27 05:08:00,
2013-02-26 23:23:00,60.3,52.0,29.90,SSE,153,11.0,18.0,75,0.00,,,0.00,weatherlink.com 1.10,2013-02-27 05:23:00,
2013-02-26 23:38:00,60.5,53.0,29.89,South,177,12.0,18.0,75,0.00,,,0.00,weatherlink.com 1.10,2013-02-27 05:38:00,
2013-02-26 23:53:00,60.4,53.0,29.89,South,171,11.0,20.0,77,0.00,,,0.00,weatherlink.com 1.10,2013-02-27 05:53:00,